createdAt,value
2022-09-27T00:01:22.585Z,21.39
2022-09-27T00:03:49.709Z,21.39
2022-09-27T00:06:20.782Z,21.41
2022-09-27T00:08:59.425Z,21.39
2022-09-27T00:11:26.672Z,21.41
2022-09-27T00:13:55.263Z,21.42
2022-09-27T00:16:23.281Z,21.43
2022-09-27T00:18:50.349Z,21.42
2022-09-27T00:21:17.326Z,21.43
2022-09-27T00:23:44.517Z,21.37
2022-09-27T00:26:12.895Z,21.33
2022-09-27T00:28:39.921Z,21.30
2022-09-27T00:31:15.211Z,21.27
2022-09-27T00:33:42.202Z,21.28
2022-09-27T00:36:10.442Z,21.23
2022-09-27T00:38:37.306Z,21.23
2022-09-27T00:41:04.786Z,21.23
2022-09-27T00:43:44.031Z,21.21
2022-09-27T00:46:11.518Z,21.21
2022-09-27T00:48:39.140Z,21.19
2022-09-27T00:51:07.832Z,21.17
2022-09-27T00:53:37.086Z,21.19
2022-09-27T00:56:08.907Z,21.19
2022-09-27T00:58:38.734Z,21.18
2022-09-27T01:01:08.389Z,21.18
2022-09-27T01:03:41.441Z,21.16
2022-09-27T01:06:09.649Z,21.17
2022-09-27T01:08:36.596Z,21.16
2022-09-27T01:11:15.519Z,21.16
2022-09-27T01:14:09.317Z,21.15
2022-09-27T01:16:47.149Z,21.16
2022-09-27T01:19:16.872Z,21.16
2022-09-27T01:21:43.917Z,21.15
2022-09-27T01:24:32.577Z,21.13
2022-09-27T01:26:59.520Z,21.13
2022-09-27T01:29:36.030Z,21.11
2022-09-27T01:32:05.907Z,21.10
2022-09-27T01:34:39.728Z,21.08
2022-09-27T01:37:09.569Z,21.09
2022-09-27T01:39:54.919Z,21.08
2022-09-27T01:42:26.519Z,21.05
2022-09-27T01:45:10.982Z,21.06
2022-09-27T01:47:45.858Z,21.07
2022-09-27T01:50:19.678Z,21.06
2022-09-27T01:52:55.868Z,21.05
2022-09-27T01:55:25.608Z,21.04
2022-09-27T01:58:02.086Z,21.03
2022-09-27T02:00:29.528Z,21.02
2022-09-27T02:03:19.899Z,21.02
2022-09-27T02:06:13.472Z,21.01
2022-09-27T02:09:17.120Z,21.01
2022-09-27T02:11:56.192Z,20.99
2022-09-27T02:14:29.193Z,20.99
2022-09-27T02:17:00.574Z,20.96
2022-09-27T02:19:27.470Z,20.95
2022-09-27T02:21:57.188Z,20.92
2022-09-27T02:24:30.612Z,20.91
2022-09-27T02:27:02.363Z,20.89
2022-09-27T02:29:34.699Z,20.86
2022-09-27T02:32:01.728Z,20.85
2022-09-27T02:34:30.684Z,20.83
2022-09-27T02:36:57.731Z,20.81
2022-09-27T02:39:25.087Z,20.79
2022-09-27T02:41:52.553Z,20.80
2022-09-27T02:44:21.542Z,20.78
2022-09-27T02:47:07.043Z,20.77
2022-09-27T02:49:56.398Z,20.75
2022-09-27T02:52:43.793Z,20.73
2022-09-27T02:55:29.094Z,20.71
2022-09-27T02:58:17.424Z,20.70
2022-09-27T03:00:59.615Z,20.70
2022-09-27T03:03:26.452Z,20.70
2022-09-27T03:05:56.259Z,20.69
2022-09-27T03:08:23.600Z,20.67
2022-09-27T03:10:50.831Z,20.67
2022-09-27T03:13:17.672Z,20.66
2022-09-27T03:15:44.849Z,20.64
2022-09-27T03:18:11.739Z,20.64
2022-09-27T03:20:39.022Z,20.63
2022-09-27T03:23:06.106Z,20.61
2022-09-27T03:25:33.078Z,20.61
2022-09-27T03:27:59.970Z,20.59
2022-09-27T03:30:27.045Z,20.58
2022-09-27T03:32:54.028Z,20.57
2022-09-27T03:35:21.008Z,20.55
2022-09-27T03:37:48.287Z,20.54
2022-09-27T03:40:15.320Z,20.53
2022-09-27T03:42:46.159Z,20.53
2022-09-27T03:45:15.982Z,20.53
2022-09-27T03:47:42.887Z,20.52
2022-09-27T03:50:10.915Z,20.52
2022-09-27T03:52:38.304Z,20.53
2022-09-27T03:55:05.920Z,20.53
2022-09-27T03:57:32.913Z,20.52
2022-09-27T04:00:00.220Z,20.51
2022-09-27T04:02:28.012Z,20.51
2022-09-27T04:05:02.951Z,20.51
2022-09-27T04:07:31.447Z,20.49
2022-09-27T04:09:58.463Z,20.50
2022-09-27T04:12:25.345Z,20.49
2022-09-27T04:14:57.804Z,20.48
2022-09-27T04:17:26.107Z,20.48
2022-09-27T04:19:53.051Z,20.48
2022-09-27T04:22:19.962Z,20.47
2022-09-27T04:24:47.012Z,20.46
2022-09-27T04:27:13.794Z,20.46
2022-09-27T04:29:43.418Z,20.44
2022-09-27T04:32:10.282Z,20.44
2022-09-27T04:35:03.070Z,20.45
2022-09-27T04:37:29.989Z,20.44
2022-09-27T04:39:56.942Z,20.41
2022-09-27T04:42:23.948Z,20.41
2022-09-27T04:44:58.244Z,20.41
2022-09-27T04:47:25.276Z,20.39
2022-09-27T04:49:52.290Z,20.38
2022-09-27T04:52:19.239Z,20.38
2022-09-27T04:54:46.142Z,20.36
2022-09-27T04:57:13.185Z,20.33
2022-09-27T04:59:40.955Z,20.33
2022-09-27T05:02:07.696Z,20.31
2022-09-27T05:04:34.696Z,20.29
2022-09-27T05:07:01.753Z,20.31
2022-09-27T05:09:28.817Z,20.30
2022-09-27T05:11:56.116Z,20.32
2022-09-27T05:14:23.106Z,20.39
2022-09-27T05:16:50.093Z,20.42
2022-09-27T05:19:17.248Z,20.43
2022-09-27T05:21:44.214Z,20.44
2022-09-27T05:24:11.104Z,20.47
2022-09-27T05:26:38.073Z,20.51
2022-09-27T05:29:05.033Z,20.55
2022-09-27T05:31:32.187Z,20.59
2022-09-27T05:33:59.050Z,20.64
2022-09-27T05:36:25.924Z,20.67
2022-09-27T05:38:53.947Z,20.72
2022-09-27T05:41:20.898Z,20.76
2022-09-27T05:43:47.619Z,20.81
2022-09-27T05:46:14.524Z,20.85
2022-09-27T05:48:41.463Z,20.91
2022-09-27T05:51:08.587Z,20.95
2022-09-27T05:53:35.487Z,20.98
2022-09-27T05:56:03.983Z,21.04
2022-09-27T05:58:30.826Z,21.08
2022-09-27T06:00:57.721Z,21.11
2022-09-27T06:03:24.719Z,21.14
2022-09-27T06:05:51.861Z,21.18
2022-09-27T06:08:20.687Z,21.20
2022-09-27T06:10:48.448Z,21.23
2022-09-27T06:13:16.211Z,21.27
2022-09-27T06:15:43.958Z,21.29
2022-09-27T06:18:13.059Z,21.33
2022-09-27T06:20:40.455Z,21.37
2022-09-27T06:23:12.040Z,21.37
2022-09-27T06:25:39.698Z,21.39
2022-09-27T06:28:07.154Z,21.41
2022-09-27T06:30:34.147Z,21.41
2022-09-27T06:33:02.038Z,21.43
2022-09-27T06:35:29.977Z,21.46
2022-09-27T06:37:56.879Z,21.48
2022-09-27T06:40:27.538Z,21.47
2022-09-27T06:42:54.679Z,21.47
2022-09-27T06:45:21.334Z,21.46
2022-09-27T06:47:48.376Z,21.46
2022-09-27T06:50:15.617Z,21.45
2022-09-27T06:52:49.257Z,21.34
2022-09-27T06:55:20.272Z,21.06
2022-09-27T06:58:07.916Z,21.08
2022-09-27T07:00:35.849Z,21.09
2022-09-27T07:03:04.018Z,21.13
2022-09-27T07:05:31.515Z,21.15
2022-09-27T07:07:58.917Z,21.16
2022-09-27T07:10:26.772Z,21.14
2022-09-27T07:12:56.319Z,21.12
2022-09-27T07:15:23.642Z,21.12
2022-09-27T07:18:00.333Z,21.10
2022-09-27T07:20:27.704Z,21.09
2022-09-27T07:22:54.686Z,21.06
2022-09-27T07:25:22.929Z,21.05
2022-09-27T07:27:50.183Z,21.07
2022-09-27T07:30:17.454Z,21.13
2022-09-27T07:32:44.605Z,21.11
2022-09-27T07:35:22.740Z,21.13
2022-09-27T07:37:49.762Z,21.18
2022-09-27T07:40:16.975Z,21.15
2022-09-27T07:42:43.591Z,21.12
2022-09-27T07:45:12.933Z,21.12
2022-09-27T07:47:42.236Z,21.07
2022-09-27T07:50:12.583Z,21.07
2022-09-27T07:52:40.188Z,21.07
2022-09-27T07:55:07.333Z,21.06
2022-09-27T07:57:34.557Z,21.09
2022-09-27T08:00:01.215Z,21.03
2022-09-27T08:02:27.856Z,21.04
2022-09-27T08:05:05.340Z,21.07
2022-09-27T08:07:33.071Z,21.08
2022-09-27T08:09:59.900Z,21.06
2022-09-27T08:12:26.523Z,21.08
2022-09-27T08:15:01.624Z,21.09
2022-09-27T08:17:34.288Z,21.25
2022-09-27T08:20:05.894Z,21.29
2022-09-27T08:22:32.536Z,21.36
2022-09-27T08:25:09.858Z,21.38
2022-09-27T08:27:36.916Z,21.33
2022-09-27T08:30:04.128Z,21.26
2022-09-27T08:32:31.022Z,21.28
2022-09-27T08:35:09.723Z,21.29
2022-09-27T08:37:36.296Z,21.25
2022-09-27T08:40:03.433Z,21.18
2022-09-27T08:42:33.130Z,21.17
2022-09-27T08:45:11.217Z,21.14
2022-09-27T08:47:43.955Z,21.11
2022-09-27T08:50:19.343Z,21.09
2022-09-27T08:52:55.241Z,21.07
2022-09-27T08:55:39.135Z,21.04
2022-09-27T08:58:13.535Z,21.03
2022-09-27T09:00:40.184Z,21.01
2022-09-27T09:03:20.288Z,20.99
2022-09-27T09:06:04.388Z,20.99
2022-09-27T09:08:35.623Z,20.97
2022-09-27T09:11:32.422Z,20.92
2022-09-27T09:14:17.979Z,20.90
2022-09-27T09:16:52.770Z,20.89
2022-09-27T09:19:31.791Z,20.86
2022-09-27T09:22:18.671Z,20.84
2022-09-27T09:24:45.589Z,20.81
2022-09-27T09:27:25.648Z,20.79
2022-09-27T09:30:02.194Z,20.76
2022-09-27T09:32:31.677Z,20.73
2022-09-27T09:35:06.910Z,20.73
2022-09-27T09:37:33.464Z,20.72
2022-09-27T09:40:08.233Z,20.70
2022-09-27T09:42:39.101Z,20.67
2022-09-27T09:45:17.404Z,20.66
2022-09-27T09:47:46.734Z,20.64
2022-09-27T09:50:13.302Z,20.62
2022-09-27T09:52:42.669Z,20.59
2022-09-27T09:55:20.563Z,20.56
2022-09-27T09:57:56.278Z,20.56
2022-09-27T10:00:22.930Z,20.56
2022-09-27T10:02:51.383Z,20.54
2022-09-27T10:05:28.180Z,20.53
2022-09-27T10:07:58.395Z,20.51
2022-09-27T10:10:25.088Z,20.49
2022-09-27T10:12:52.320Z,20.48
2022-09-27T10:15:20.782Z,20.49
2022-09-27T10:17:52.386Z,20.46
2022-09-27T10:20:24.882Z,20.45
2022-09-27T10:22:55.656Z,20.43
2022-09-27T10:25:22.346Z,20.44
2022-09-27T10:27:50.783Z,20.42
2022-09-27T10:30:32.274Z,20.41
2022-09-27T10:33:00.835Z,20.41
2022-09-27T10:35:30.564Z,20.39
2022-09-27T10:38:13.766Z,20.38
2022-09-27T10:40:40.363Z,20.37
2022-09-27T10:43:29.395Z,20.36
2022-09-27T10:46:09.409Z,20.36
2022-09-27T10:48:37.899Z,20.35
2022-09-27T10:51:05.610Z,20.34
2022-09-27T10:53:34.111Z,20.33
2022-09-27T10:56:01.391Z,20.32
2022-09-27T10:58:30.893Z,20.30
2022-09-27T11:01:03.687Z,20.31
2022-09-27T11:03:31.701Z,20.29
2022-09-27T11:05:59.811Z,20.28
2022-09-27T11:08:33.396Z,20.27
2022-09-27T11:11:01.452Z,20.27
2022-09-27T11:13:33.259Z,20.26
2022-09-27T11:15:59.903Z,20.24
2022-09-27T11:18:45.139Z,20.23
2022-09-27T11:21:18.872Z,20.23
2022-09-27T11:24:08.292Z,20.23
2022-09-27T11:26:54.762Z,20.21
2022-09-27T11:29:46.633Z,20.21
2022-09-27T11:32:36.653Z,20.20
2022-09-27T11:35:12.219Z,20.21
2022-09-27T11:37:54.246Z,20.21
2022-09-27T11:41:00.627Z,20.20
2022-09-27T11:43:34.465Z,20.19
2022-09-27T11:46:25.325Z,20.18
2022-09-27T11:49:20.558Z,20.17
2022-09-27T11:52:22.672Z,20.16
2022-09-27T11:55:10.901Z,20.16
2022-09-27T11:57:46.780Z,20.15
2022-09-27T12:00:26.815Z,20.16
2022-09-27T12:03:05.609Z,20.15
2022-09-27T12:05:32.268Z,20.14
2022-09-27T12:08:16.164Z,20.14
2022-09-27T12:10:46.720Z,20.13
2022-09-27T12:13:14.787Z,20.16
2022-09-27T12:15:43.456Z,20.16
2022-09-27T12:18:20.431Z,20.15
2022-09-27T12:20:47.024Z,20.17
2022-09-27T12:23:46.338Z,20.16
2022-09-27T12:26:15.892Z,20.16
2022-09-27T12:28:42.446Z,20.15
2022-09-27T12:31:31.774Z,20.16
2022-09-27T12:34:09.752Z,20.13
2022-09-27T12:36:44.735Z,20.12
2022-09-27T12:39:13.484Z,20.13
2022-09-27T12:41:41.446Z,20.09
2022-09-27T12:44:10.281Z,20.08
2022-09-27T12:46:46.019Z,20.09
2022-09-27T12:49:35.362Z,20.09
2022-09-27T12:52:13.185Z,20.08
2022-09-27T12:55:03.350Z,20.07
2022-09-27T12:57:32.993Z,20.03
2022-09-27T13:00:02.444Z,20.04
2022-09-27T13:03:14.014Z,20.00
2022-09-27T13:05:58.081Z,20.02
2022-09-27T13:08:27.791Z,19.98
2022-09-27T13:11:13.018Z,19.97
2022-09-27T13:13:40.177Z,19.96
2022-09-27T13:16:07.901Z,19.97
2022-09-27T13:18:38.363Z,19.94
2022-09-27T13:21:06.540Z,19.92
2022-09-27T13:23:34.063Z,19.92
2022-09-27T13:26:01.164Z,19.90
2022-09-27T13:28:31.980Z,19.89
2022-09-27T13:31:00.755Z,19.90
2022-09-27T13:33:47.005Z,19.88
2022-09-27T13:36:16.503Z,19.88
2022-09-27T13:39:01.454Z,19.86
2022-09-27T13:41:53.546Z,19.86
2022-09-27T13:44:39.107Z,19.86
2022-09-27T13:47:27.507Z,19.85
2022-09-27T13:49:58.731Z,19.83
2022-09-27T13:52:36.595Z,19.82
2022-09-27T13:55:06.381Z,19.82
2022-09-27T13:57:44.073Z,19.82
2022-09-27T14:00:17.624Z,19.82
2022-09-27T14:02:55.241Z,19.81
2022-09-27T14:05:28.331Z,19.87
2022-09-27T14:07:55.694Z,19.89
2022-09-27T14:10:23.413Z,19.88
2022-09-27T14:12:52.525Z,19.92
2022-09-27T14:15:26.536Z,19.91
2022-09-27T14:17:53.587Z,19.93
2022-09-27T14:20:36.067Z,19.91
2022-09-27T14:23:03.571Z,19.91
2022-09-27T14:25:30.390Z,19.91
2022-09-27T14:27:58.703Z,19.89
2022-09-27T14:30:28.185Z,19.89
2022-09-27T14:32:55.868Z,19.88
2022-09-27T14:35:42.572Z,19.88
2022-09-27T14:38:36.052Z,19.88
2022-09-27T14:40:58.317Z,19.88
2022-09-27T14:43:25.823Z,19.88
2022-09-27T14:45:55.781Z,19.90
2022-09-27T14:48:22.436Z,19.89
2022-09-27T14:51:06.196Z,19.89
2022-09-27T14:53:34.826Z,19.88
2022-09-27T14:56:02.544Z,19.88
2022-09-27T14:58:46.720Z,19.90
2022-09-27T15:01:18.360Z,19.89
2022-09-27T15:03:45.465Z,19.86
2022-09-27T15:06:12.376Z,19.85
2022-09-27T15:08:39.428Z,19.84
2022-09-27T15:11:07.791Z,19.84
2022-09-27T15:13:35.263Z,19.83
2022-09-27T15:16:02.111Z,19.81
2022-09-27T15:18:33.323Z,19.80
2022-09-27T15:21:00.302Z,19.78
2022-09-27T15:23:34.846Z,19.80
2022-09-27T15:26:08.201Z,19.79
2022-09-27T15:28:36.444Z,19.79
2022-09-27T15:31:03.228Z,19.79
2022-09-27T15:33:34.357Z,19.78
2022-09-27T15:36:04.713Z,19.77
2022-09-27T15:38:32.775Z,19.79
2022-09-27T15:41:06.834Z,19.77
2022-09-27T15:43:36.133Z,19.76
2022-09-27T15:46:04.968Z,19.74
2022-09-27T15:48:32.920Z,19.73
2022-09-27T15:51:00.055Z,19.72
2022-09-27T15:53:35.819Z,19.73
2022-09-27T15:56:08.932Z,19.73
2022-09-27T15:58:36.044Z,19.71
2022-09-27T16:01:03.664Z,19.72
2022-09-27T16:03:30.277Z,19.71
2022-09-27T16:05:57.209Z,19.65
2022-09-27T16:08:24.537Z,19.65
2022-09-27T16:10:52.212Z,19.64
2022-09-27T16:13:18.932Z,19.64
2022-09-27T16:15:46.011Z,19.62
2022-09-27T16:18:13.659Z,19.60
2022-09-27T16:20:40.398Z,19.60
2022-09-27T16:23:07.246Z,19.58
2022-09-27T16:25:33.877Z,19.60
2022-09-27T16:28:01.398Z,19.62
2022-09-27T16:30:28.450Z,19.71
2022-09-27T16:32:55.756Z,19.76
2022-09-27T16:35:23.827Z,19.79
2022-09-27T16:37:50.543Z,19.81
2022-09-27T16:40:18.788Z,19.86
2022-09-27T16:42:45.772Z,19.89
2022-09-27T16:45:16.884Z,19.94
2022-09-27T16:47:45.919Z,19.99
2022-09-27T16:50:32.437Z,20.04
2022-09-27T16:53:00.529Z,20.10
2022-09-27T16:55:28.954Z,20.16
2022-09-27T16:57:58.203Z,20.19
2022-09-27T17:00:25.408Z,20.25
2022-09-27T17:02:53.150Z,20.31
2022-09-27T17:05:28.488Z,20.37
2022-09-27T17:07:55.365Z,20.41
2022-09-27T17:10:22.578Z,20.46
2022-09-27T17:12:49.262Z,20.50
2022-09-27T17:15:16.678Z,20.53
2022-09-27T17:17:45.381Z,20.60
2022-09-27T17:20:12.950Z,20.64
2022-09-27T17:22:39.579Z,20.67
2022-09-27T17:25:06.526Z,20.72
2022-09-27T17:27:33.280Z,20.73
2022-09-27T17:29:59.850Z,20.75
2022-09-27T17:32:26.493Z,20.76
2022-09-27T17:35:08.320Z,20.78
2022-09-27T17:37:34.988Z,20.81
2022-09-27T17:40:01.900Z,20.82
2022-09-27T17:42:29.086Z,20.85
2022-09-27T17:45:04.320Z,20.87
2022-09-27T17:47:49.564Z,20.88
2022-09-27T17:50:25.276Z,20.88
2022-09-27T17:52:52.348Z,20.89
2022-09-27T17:55:19.354Z,20.92
2022-09-27T17:57:49.350Z,20.93
2022-09-27T18:00:16.431Z,20.94
2022-09-27T18:02:45.587Z,20.95
2022-09-27T18:05:12.444Z,20.96
2022-09-27T18:07:39.318Z,20.95
2022-09-27T18:10:06.238Z,20.96
2022-09-27T18:12:46.816Z,20.97
2022-09-27T18:15:13.441Z,20.96
2022-09-27T18:17:40.283Z,20.97
2022-09-27T18:20:07.255Z,20.98
2022-09-27T18:22:33.824Z,20.97
2022-09-27T18:25:05.889Z,20.98
2022-09-27T18:27:33.019Z,20.96
2022-09-27T18:30:00.317Z,20.97
2022-09-27T18:32:26.958Z,20.97
2022-09-27T18:35:16.802Z,20.95
2022-09-27T18:37:47.131Z,20.95
2022-09-27T18:40:14.722Z,20.98
2022-09-27T18:42:41.345Z,20.96
2022-09-27T18:45:08.576Z,20.96
2022-09-27T18:47:35.498Z,20.93
2022-09-27T18:50:02.239Z,20.94
2022-09-27T18:52:28.809Z,20.92
2022-09-27T18:55:05.648Z,20.87
2022-09-27T18:57:34.177Z,20.84
2022-09-27T19:00:04.463Z,20.85
2022-09-27T19:02:32.454Z,20.85
2022-09-27T19:05:04.353Z,20.87
2022-09-27T19:07:31.022Z,20.84
2022-09-27T19:09:57.644Z,20.83
2022-09-27T19:12:24.226Z,20.82
2022-09-27T19:15:07.558Z,20.81
2022-09-27T19:17:34.180Z,20.80
2022-09-27T19:20:00.821Z,20.79
2022-09-27T19:22:28.949Z,20.79
2022-09-27T19:25:04.089Z,20.75
2022-09-27T19:27:31.201Z,20.74
2022-09-27T19:29:59.352Z,20.74
2022-09-27T19:32:26.431Z,20.72
2022-09-27T19:35:10.054Z,20.70
2022-09-27T19:37:37.163Z,20.69
2022-09-27T19:40:11.683Z,20.68
2022-09-27T19:42:41.919Z,20.67
2022-09-27T19:45:11.665Z,20.66
2022-09-27T19:47:38.804Z,20.65
2022-09-27T19:50:05.922Z,20.63
2022-09-27T19:52:33.332Z,20.60
2022-09-27T19:55:07.754Z,20.63
2022-09-27T19:57:34.916Z,20.64
2022-09-27T20:00:01.971Z,20.65
2022-09-27T20:02:29.026Z,20.65
2022-09-27T20:05:03.595Z,20.73
2022-09-27T20:07:31.549Z,20.76
2022-09-27T20:09:58.629Z,20.76
2022-09-27T20:12:25.828Z,20.75
2022-09-27T20:15:01.945Z,20.74
2022-09-27T20:17:31.905Z,20.71
2022-09-27T20:19:59.137Z,20.71
2022-09-27T20:22:26.271Z,20.69
2022-09-27T20:25:07.531Z,20.70
2022-09-27T20:27:34.441Z,20.98
2022-09-27T20:30:01.381Z,21.15
2022-09-27T20:32:28.877Z,21.24
2022-09-27T20:35:02.722Z,21.25
2022-09-27T20:37:31.273Z,21.29
2022-09-27T20:39:58.031Z,21.26
2022-09-27T20:42:24.679Z,21.26
2022-09-27T20:45:02.926Z,21.26
2022-09-27T20:47:29.632Z,21.22
2022-09-27T20:49:56.235Z,21.20
2022-09-27T20:52:22.865Z,21.17
2022-09-27T20:54:57.888Z,21.15
2022-09-27T20:57:46.254Z,21.13
2022-09-27T21:00:13.277Z,21.09
2022-09-27T21:02:39.879Z,21.10
2022-09-27T21:05:06.799Z,21.08
2022-09-27T21:07:33.455Z,21.06
2022-09-27T21:10:00.021Z,21.05
2022-09-27T21:12:43.916Z,21.05
2022-09-27T21:15:15.289Z,21.04
2022-09-27T21:17:42.356Z,21.03
2022-09-27T21:20:10.878Z,21.02
2022-09-27T21:22:38.686Z,21.01
2022-09-27T21:25:06.214Z,20.99
2022-09-27T21:27:32.973Z,20.98
2022-09-27T21:30:00.345Z,20.95
2022-09-27T21:32:27.196Z,20.94
2022-09-27T21:35:07.535Z,20.92
2022-09-27T21:37:34.119Z,20.89
2022-09-27T21:40:06.612Z,20.89
2022-09-27T21:42:33.199Z,20.86
2022-09-27T21:45:01.179Z,20.84
2022-09-27T21:47:31.039Z,20.82
2022-09-27T21:49:57.637Z,20.78
2022-09-27T21:52:24.288Z,20.77
2022-09-27T21:54:58.177Z,20.74
2022-09-27T21:57:24.738Z,20.73
2022-09-27T21:59:51.737Z,20.72
2022-09-27T22:02:19.424Z,20.70
2022-09-27T22:04:46.183Z,20.67
2022-09-27T22:07:12.798Z,20.65
2022-09-27T22:09:39.560Z,20.65
2022-09-27T22:12:06.470Z,20.62
2022-09-27T22:14:34.509Z,20.62
2022-09-27T22:17:01.143Z,20.60
2022-09-27T22:19:27.730Z,20.57
2022-09-27T22:21:54.307Z,20.57
2022-09-27T22:24:20.969Z,20.56
2022-09-27T22:26:48.920Z,20.54
2022-09-27T22:29:15.760Z,20.52
2022-09-27T22:31:42.451Z,20.51
2022-09-27T22:34:17.052Z,20.50
2022-09-27T22:36:43.900Z,20.48
2022-09-27T22:39:10.595Z,20.46
2022-09-27T22:41:43.131Z,20.45
2022-09-27T22:44:13.183Z,20.44
2022-09-27T22:46:43.178Z,20.42
2022-09-27T22:49:10.061Z,20.40
2022-09-27T22:51:36.689Z,20.38
2022-09-27T22:54:03.437Z,20.37
2022-09-27T22:56:30.055Z,20.36
2022-09-27T22:58:56.646Z,20.34
2022-09-27T23:01:24.348Z,20.33
2022-09-27T23:03:52.157Z,20.32
2022-09-27T23:06:19.727Z,20.29
2022-09-27T23:08:47.608Z,20.30
2022-09-27T23:11:19.215Z,20.31
2022-09-27T23:13:46.623Z,20.29
2022-09-27T23:16:14.782Z,20.27
2022-09-27T23:18:42.327Z,20.25
2022-09-27T23:21:10.685Z,20.25
2022-09-27T23:23:40.807Z,20.24
2022-09-27T23:26:08.417Z,20.24
2022-09-27T23:28:35.446Z,20.22
2022-09-27T23:31:22.220Z,20.21
2022-09-27T23:33:49.204Z,20.20
2022-09-27T23:36:17.377Z,20.19
2022-09-27T23:38:45.842Z,20.18
2022-09-27T23:41:13.399Z,20.16
2022-09-27T23:43:40.039Z,20.15
2022-09-27T23:46:07.343Z,20.14
2022-09-27T23:48:34.873Z,20.15
2022-09-27T23:51:01.862Z,20.13
2022-09-27T23:53:28.489Z,20.12
2022-09-27T23:56:02.857Z,20.12
2022-09-27T23:58:32.526Z,20.10
